sensor_id;sensor_type;location;lat;lon;timestamp;temperature;humidity
4904;DHT22;2467;48.142;11.616;2022-10-16T00:00:29;15.50;99.90
4904;DHT22;2467;48.142;11.616;2022-10-16T00:01:05;15.50;99.90
4904;DHT22;2467;48.142;11.616;2022-10-16T00:01:38;15.50;99.90
4904;DHT22;2467;48.142;11.616;2022-10-16T00:02:10;15.50;99.90
4904;DHT22;2467;48.142;11.616;2022-10-16T00:02:42;15.50;99.90
4904;DHT22;2467;48.142;11.616;2022-10-16T00:03:15;15.50;99.90
4904;DHT22;2467;48.142;11.616;2022-10-16T00:03:48;15.50;99.90
4904;DHT22;2467;48.142;11.616;2022-10-16T00:04:19;15.50;99.90
4904;DHT22;2467;48.142;11.616;2022-10-16T00:04:52;15.50;99.90
4904;DHT22;2467;48.142;11.616;2022-10-16T00:05:26;15.50;99.90
4904;DHT22;2467;48.142;11.616;2022-10-16T00:05:59;15.40;99.90
4904;DHT22;2467;48.142;11.616;2022-10-16T00:06:31;15.40;99.90
4904;DHT22;2467;48.142;11.616;2022-10-16T00:07:04;15.40;99.90
4904;DHT22;2467;48.142;11.616;2022-10-16T00:07:36;15.40;99.90
4904;DHT22;2467;48.142;11.616;2022-10-16T00:08:09;15.40;99.90
4904;DHT22;2467;48.142;11.616;2022-10-16T00:08:42;15.40;99.90
4904;DHT22;2467;48.142;11.616;2022-10-16T00:09:15;15.40;99.90
4904;DHT22;2467;48.142;11.616;2022-10-16T00:09:47;15.40;99.90
4904;DHT22;2467;48.142;11.616;2022-10-16T00:10:19;15.40;99.90
4904;DHT22;2467;48.142;11.616;2022-10-16T00:10:52;15.40;99.90
4904;DHT22;2467;48.142;11.616;2022-10-16T00:11:25;15.40;99.90
4904;DHT22;2467;48.142;11.616;2022-10-16T00:11:57;15.40;99.90
4904;DHT22;2467;48.142;11.616;2022-10-16T00:12:30;15.40;99.90
4904;DHT22;2467;48.142;11.616;2022-10-16T00:13:03;15.40;99.90
4904;DHT22;2467;48.142;11.616;2022-10-16T00:13:36;15.40;99.90
4904;DHT22;2467;48.142;11.616;2022-10-16T00:14:13;15.40;99.90
4904;DHT22;2467;48.142;11.616;2022-10-16T00:14:45;15.40;99.90
4904;DHT22;2467;48.142;11.616;2022-10-16T00:15:18;15.40;99.90
4904;DHT22;2467;48.142;11.616;2022-10-16T00:15:50;15.40;99.90
4904;DHT22;2467;48.142;11.616;2022-10-16T00:16:22;15.50;99.90
4904;DHT22;2467;48.142;11.616;2022-10-16T00:16:55;15.50;99.90
4904;DHT22;2467;48.142;11.616;2022-10-16T00:17:27;15.50;99.90
4904;DHT22;2467;48.142;11.616;2022-10-16T00:17:59;15.50;99.90
4904;DHT22;2467;48.142;11.616;2022-10-16T00:18:32;15.50;99.90
4904;DHT22;2467;48.142;11.616;2022-10-16T00:19:05;15.50;99.90
4904;DHT22;2467;48.142;11.616;2022-10-16T00:19:38;15.50;99.90
4904;DHT22;2467;48.142;11.616;2022-10-16T00:20:11;15.50;99.90
4904;DHT22;2467;48.142;11.616;2022-10-16T00:20:42;15.50;99.90
4904;DHT22;2467;48.142;11.616;2022-10-16T00:21:16;15.50;99.90
4904;DHT22;2467;48.142;11.616;2022-10-16T00:21:49;15.40;99.90
4904;DHT22;2467;48.142;11.616;2022-10-16T00:22:21;15.40;99.90
4904;DHT22;2467;48.142;11.616;2022-10-16T00:22:53;15.40;99.90
4904;DHT22;2467;48.142;11.616;2022-10-16T00:23:26;15.40;99.90
4904;DHT22;2467;48.142;11.616;2022-10-16T00:24:01;15.40;99.90
4904;DHT22;2467;48.142;11.616;2022-10-16T00:24:33;15.40;99.90
4904;DHT22;2467;48.142;11.616;2022-10-16T00:25:06;15.40;99.90
4904;DHT22;2467;48.142;11.616;2022-10-16T00:25:38;15.50;99.90
4904;DHT22;2467;48.142;11.616;2022-10-16T00:26:16;15.40;99.90
4904;DHT22;2467;48.142;11.616;2022-10-16T00:26:49;15.40;99.90
4904;DHT22;2467;48.142;11.616;2022-10-16T00:27:22;15.50;99.90
4904;DHT22;2467;48.142;11.616;2022-10-16T00:27:54;15.40;99.90
4904;DHT22;2467;48.142;11.616;2022-10-16T00:28:27;15.40;99.90
4904;DHT22;2467;48.142;11.616;2022-10-16T00:28:59;15.40;99.90
4904;DHT22;2467;48.142;11.616;2022-10-16T00:29:31;15.40;99.90
4904;DHT22;2467;48.142;11.616;2022-10-16T00:30:05;15.40;99.90
4904;DHT22;2467;48.142;11.616;2022-10-16T00:30:39;15.40;99.90
4904;DHT22;2467;48.142;11.616;2022-10-16T00:31:12;15.40;99.90
4904;DHT22;2467;48.142;11.616;2022-10-16T00:31:45;15.40;99.90
4904;DHT22;2467;48.142;11.616;2022-10-16T00:32:17;15.40;99.90
4904;DHT22;2467;48.142;11.616;2022-10-16T00:32:48;15.40;99.90
4904;DHT22;2467;48.142;11.616;2022-10-16T00:33:21;15.40;99.90
4904;DHT22;2467;48.142;11.616;2022-10-16T00:33:53;15.40;99.90
4904;DHT22;2467;48.142;11.616;2022-10-16T00:34:25;15.30;99.90
4904;DHT22;2467;48.142;11.616;2022-10-16T00:34:58;15.30;99.90
4904;DHT22;2467;48.142;11.616;2022-10-16T00:35:30;15.30;99.90
4904;DHT22;2467;48.142;11.616;2022-10-16T00:36:04;15.30;99.90
4904;DHT22;2467;48.142;11.616;2022-10-16T00:36:37;15.30;99.90
4904;DHT22;2467;48.142;11.616;2022-10-16T00:37:09;15.30;99.90
4904;DHT22;2467;48.142;11.616;2022-10-16T00:37:42;15.30;99.90
4904;DHT22;2467;48.142;11.616;2022-10-16T00:38:14;15.40;99.90
4904;DHT22;2467;48.142;11.616;2022-10-16T00:38:46;15.30;99.90
4904;DHT22;2467;48.142;11.616;2022-10-16T00:39:21;15.40;99.90
4904;DHT22;2467;48.142;11.616;2022-10-16T00:39:53;15.30;99.90
4904;DHT22;2467;48.142;11.616;2022-10-16T00:40:25;15.30;99.90
4904;DHT22;2467;48.142;11.616;2022-10-16T00:40:57;15.30;99.90
4904;DHT22;2467;48.142;11.616;2022-10-16T00:41:30;15.30;99.90
4904;DHT22;2467;48.142;11.616;2022-10-16T00:42:03;15.30;99.90
4904;DHT22;2467;48.142;11.616;2022-10-16T00:42:34;15.20;99.90
4904;DHT22;2467;48.142;11.616;2022-10-16T00:43:12;15.20;99.90
4904;DHT22;2467;48.142;11.616;2022-10-16T00:43:46;15.20;99.90
4904;DHT22;2467;48.142;11.616;2022-10-16T00:44:45;15.20;99.90
4904;DHT22;2467;48.142;11.616;2022-10-16T00:45:18;15.20;99.90
4904;DHT22;2467;48.142;11.616;2022-10-16T00:45:50;15.10;99.90
4904;DHT22;2467;48.142;11.616;2022-10-16T00:46:25;15.20;99.90
4904;DHT22;2467;48.142;11.616;2022-10-16T00:46:58;15.20;99.90
4904;DHT22;2467;48.142;11.616;2022-10-16T00:47:32;15.20;99.90
4904;DHT22;2467;48.142;11.616;2022-10-16T00:48:11;15.20;99.90
4904;DHT22;2467;48.142;11.616;2022-10-16T00:48:48;15.20;99.90
4904;DHT22;2467;48.142;11.616;2022-10-16T00:49:21;15.20;99.90
4904;DHT22;2467;48.142;11.616;2022-10-16T00:49:59;15.20;99.90
4904;DHT22;2467;48.142;11.616;2022-10-16T00:50:33;15.20;99.90
4904;DHT22;2467;48.142;11.616;2022-10-16T00:51:07;15.20;99.90
4904;DHT22;2467;48.142;11.616;2022-10-16T00:51:41;15.30;99.90
4904;DHT22;2467;48.142;11.616;2022-10-16T00:52:14;15.20;99.90
4904;DHT22;2467;48.142;11.616;2022-10-16T00:52:48;15.20;99.90
4904;DHT22;2467;48.142;11.616;2022-10-16T00:53:22;15.20;99.90
4904;DHT22;2467;48.142;11.616;2022-10-16T00:53:55;15.20;99.90
4904;DHT22;2467;48.142;11.616;2022-10-16T00:54:30;15.20;99.90
4904;DHT22;2467;48.142;11.616;2022-10-16T00:55:05;15.20;99.90
4904;DHT22;2467;48.142;11.616;2022-10-16T00:55:38;15.20;99.90
4904;DHT22;2467;48.142;11.616;2022-10-16T00:56:13;15.20;99.90
4904;DHT22;2467;48.142;11.616;2022-10-16T00:56:46;15.20;99.90
4904;DHT22;2467;48.142;11.616;2022-10-16T00:57:18;15.10;99.90
4904;DHT22;2467;48.142;11.616;2022-10-16T00:57:51;15.10;99.90
4904;DHT22;2467;48.142;11.616;2022-10-16T00:58:24;15.10;99.90
4904;DHT22;2467;48.142;11.616;2022-10-16T00:58:57;15.10;99.90
4904;DHT22;2467;48.142;11.616;2022-10-16T00:59:32;15.10;99.90
4904;DHT22;2467;48.142;11.616;2022-10-16T01:00:08;15.10;99.90
4904;DHT22;2467;48.142;11.616;2022-10-16T01:00:41;15.10;99.90
4904;DHT22;2467;48.142;11.616;2022-10-16T01:01:13;15.10;99.90
4904;DHT22;2467;48.142;11.616;2022-10-16T01:01:46;15.10;99.90
4904;DHT22;2467;48.142;11.616;2022-10-16T01:02:18;15.00;99.90
4904;DHT22;2467;48.142;11.616;2022-10-16T01:02:53;15.10;99.90
4904;DHT22;2467;48.142;11.616;2022-10-16T01:03:27;15.10;99.90
4904;DHT22;2467;48.142;11.616;2022-10-16T01:04:00;15.10;99.90
4904;DHT22;2467;48.142;11.616;2022-10-16T01:04:35;15.10;99.90
4904;DHT22;2467;48.142;11.616;2022-10-16T01:05:08;15.10;99.90
4904;DHT22;2467;48.142;11.616;2022-10-16T01:05:47;15.20;99.90
4904;DHT22;2467;48.142;11.616;2022-10-16T01:06:28;15.10;99.90
4904;DHT22;2467;48.142;11.616;2022-10-16T01:07:12;15.10;99.90
4904;DHT22;2467;48.142;11.616;2022-10-16T01:07:55;15.10;99.90
4904;DHT22;2467;48.142;11.616;2022-10-16T01:08:34;15.10;99.90
4904;DHT22;2467;48.142;11.616;2022-10-16T01:09:17;15.10;99.90
4904;DHT22;2467;48.142;11.616;2022-10-16T01:10:02;15.10;99.90
4904;DHT22;2467;48.142;11.616;2022-10-16T01:10:40;15.10;99.90
4904;DHT22;2467;48.142;11.616;2022-10-16T01:11:19;15.10;99.90
4904;DHT22;2467;48.142;11.616;2022-10-16T01:12:01;15.00;99.90
4904;DHT22;2467;48.142;11.616;2022-10-16T01:12:41;15.00;99.90
4904;DHT22;2467;48.142;11.616;2022-10-16T01:13:21;15.00;99.90
4904;DHT22;2467;48.142;11.616;2022-10-16T01:13:59;15.00;99.90
4904;DHT22;2467;48.142;11.616;2022-10-16T01:14:40;15.00;99.90
4904;DHT22;2467;48.142;11.616;2022-10-16T01:15:20;15.00;99.90
4904;DHT22;2467;48.142;11.616;2022-10-16T01:16:02;15.00;99.90
4904;DHT22;2467;48.142;11.616;2022-10-16T01:16:42;15.00;99.90
4904;DHT22;2467;48.142;11.616;2022-10-16T01:17:19;15.00;99.90
4904;DHT22;2467;48.142;11.616;2022-10-16T01:17:58;15.00;99.90
4904;DHT22;2467;48.142;11.616;2022-10-16T01:18:35;15.00;99.90
4904;DHT22;2467;48.142;11.616;2022-10-16T01:19:15;15.00;99.90
4904;DHT22;2467;48.142;11.616;2022-10-16T01:20:03;15.00;99.90
4904;DHT22;2467;48.142;11.616;2022-10-16T01:20:40;15.10;99.90
4904;DHT22;2467;48.142;11.616;2022-10-16T01:21:18;15.00;99.90
4904;DHT22;2467;48.142;11.616;2022-10-16T01:21:55;15.10;99.90
4904;DHT22;2467;48.142;11.616;2022-10-16T01:22:39;15.10;99.90
4904;DHT22;2467;48.142;11.616;2022-10-16T01:23:21;15.10;99.90
4904;DHT22;2467;48.142;11.616;2022-10-16T01:24:03;15.10;99.90
4904;DHT22;2467;48.142;11.616;2022-10-16T01:24:39;15.10;99.90
4904;DHT22;2467;48.142;11.616;2022-10-16T01:25:18;15.10;99.90
4904;DHT22;2467;48.142;11.616;2022-10-16T01:26:08;15.10;99.90
4904;DHT22;2467;48.142;11.616;2022-10-16T01:27:28;15.10;99.90
4904;DHT22;2467;48.142;11.616;2022-10-16T01:28:05;15.10;99.90
4904;DHT22;2467;48.142;11.616;2022-10-16T01:28:41;15.10;99.90
4904;DHT22;2467;48.142;11.616;2022-10-16T01:29:17;15.10;99.90
4904;DHT22;2467;48.142;11.616;2022-10-16T01:29:53;15.10;99.90
4904;DHT22;2467;48.142;11.616;2022-10-16T01:30:29;15.10;99.90
4904;DHT22;2467;48.142;11.616;2022-10-16T01:31:03;15.10;99.90
4904;DHT22;2467;48.142;11.616;2022-10-16T01:31:39;15.10;99.90
4904;DHT22;2467;48.142;11.616;2022-10-16T01:32:16;15.10;99.90
4904;DHT22;2467;48.142;11.616;2022-10-16T01:32:54;15.10;99.90
4904;DHT22;2467;48.142;11.616;2022-10-16T01:33:30;15.10;99.90
4904;DHT22;2467;48.142;11.616;2022-10-16T01:34:06;15.10;99.90
4904;DHT22;2467;48.142;11.616;2022-10-16T01:34:47;15.10;99.90
4904;DHT22;2467;48.142;11.616;2022-10-16T01:35:22;15.10;99.90
4904;DHT22;2467;48.142;11.616;2022-10-16T01:35:58;15.10;99.90
4904;DHT22;2467;48.142;11.616;2022-10-16T01:36:37;15.00;99.90
4904;DHT22;2467;48.142;11.616;2022-10-16T01:37:14;15.00;99.90
4904;DHT22;2467;48.142;11.616;2022-10-16T01:37:50;15.00;99.90
4904;DHT22;2467;48.142;11.616;2022-10-16T01:38:26;15.00;99.90
4904;DHT22;2467;48.142;11.616;2022-10-16T01:39:02;15.00;99.90
4904;DHT22;2467;48.142;11.616;2022-10-16T01:39:35;15.00;99.90
4904;DHT22;2467;48.142;11.616;2022-10-16T01:40:13;15.00;99.90
4904;DHT22;2467;48.142;11.616;2022-10-16T01:40:51;15.00;99.90
4904;DHT22;2467;48.142;11.616;2022-10-16T01:41:28;15.00;99.90
4904;DHT22;2467;48.142;11.616;2022-10-16T01:42:08;15.00;99.90
4904;DHT22;2467;48.142;11.616;2022-10-16T01:42:45;15.00;99.90
4904;DHT22;2467;48.142;11.616;2022-10-16T01:43:20;15.00;99.90
4904;DHT22;2467;48.142;11.616;2022-10-16T01:44:01;15.10;99.90
4904;DHT22;2467;48.142;11.616;2022-10-16T01:44:34;15.10;99.90
4904;DHT22;2467;48.142;11.616;2022-10-16T01:45:09;15.10;99.90
4904;DHT22;2467;48.142;11.616;2022-10-16T01:45:45;15.10;99.90
4904;DHT22;2467;48.142;11.616;2022-10-16T01:46:20;15.10;99.90
4904;DHT22;2467;48.142;11.616;2022-10-16T01:46:54;15.10;99.90
4904;DHT22;2467;48.142;11.616;2022-10-16T01:47:30;15.10;99.90
4904;DHT22;2467;48.142;11.616;2022-10-16T01:48:05;15.10;99.90
4904;DHT22;2467;48.142;11.616;2022-10-16T01:48:39;15.10;99.90
4904;DHT22;2467;48.142;11.616;2022-10-16T01:49:13;15.10;99.90
4904;DHT22;2467;48.142;11.616;2022-10-16T01:49:46;15.10;99.90
4904;DHT22;2467;48.142;11.616;2022-10-16T01:50:19;15.10;99.90
4904;DHT22;2467;48.142;11.616;2022-10-16T01:50:56;15.10;99.90
4904;DHT22;2467;48.142;11.616;2022-10-16T01:51:32;15.10;99.90
4904;DHT22;2467;48.142;11.616;2022-10-16T01:52:09;15.10;99.90
4904;DHT22;2467;48.142;11.616;2022-10-16T01:52:46;15.20;99.90
4904;DHT22;2467;48.142;11.616;2022-10-16T01:53:19;15.20;99.90
4904;DHT22;2467;48.142;11.616;2022-10-16T01:53:54;15.10;99.90
4904;DHT22;2467;48.142;11.616;2022-10-16T01:54:28;15.20;99.90
4904;DHT22;2467;48.142;11.616;2022-10-16T01:55:04;15.10;99.90
4904;DHT22;2467;48.142;11.616;2022-10-16T01:55:40;15.20;99.90
4904;DHT22;2467;48.142;11.616;2022-10-16T01:56:17;15.20;99.90
4904;DHT22;2467;48.142;11.616;2022-10-16T01:56:51;15.20;99.90
4904;DHT22;2467;48.142;11.616;2022-10-16T01:57:24;15.20;99.90
4904;DHT22;2467;48.142;11.616;2022-10-16T01:58:01;15.20;99.90
4904;DHT22;2467;48.142;11.616;2022-10-16T01:58:37;15.20;99.90
4904;DHT22;2467;48.142;11.616;2022-10-16T01:59:14;15.20;99.90
4904;DHT22;2467;48.142;11.616;2022-10-16T01:59:51;15.20;99.90
4904;DHT22;2467;48.142;11.616;2022-10-16T02:00:25;15.20;99.90
4904;DHT22;2467;48.142;11.616;2022-10-16T02:00:58;15.20;99.90
4904;DHT22;2467;48.142;11.616;2022-10-16T02:01:33;15.20;99.90
4904;DHT22;2467;48.142;11.616;2022-10-16T02:02:09;15.20;99.90
4904;DHT22;2467;48.142;11.616;2022-10-16T02:02:45;15.20;99.90
4904;DHT22;2467;48.142;11.616;2022-10-16T02:03:20;15.20;99.90
4904;DHT22;2467;48.142;11.616;2022-10-16T02:03:54;15.10;99.90
4904;DHT22;2467;48.142;11.616;2022-10-16T02:04:30;15.10;99.90
4904;DHT22;2467;48.142;11.616;2022-10-16T02:05:10;15.30;99.90
4904;DHT22;2467;48.142;11.616;2022-10-16T02:05:46;15.10;99.90
4904;DHT22;2467;48.142;11.616;2022-10-16T02:06:21;15.10;99.90
4904;DHT22;2467;48.142;11.616;2022-10-16T02:06:55;15.10;99.90
4904;DHT22;2467;48.142;11.616;2022-10-16T02:07:26;15.10;99.90
4904;DHT22;2467;48.142;11.616;2022-10-16T02:07:59;15.10;99.90
4904;DHT22;2467;48.142;11.616;2022-10-16T02:08:36;15.10;99.90
4904;DHT22;2467;48.142;11.616;2022-10-16T02:09:08;15.10;99.90
4904;DHT22;2467;48.142;11.616;2022-10-16T02:09:41;15.10;99.90
4904;DHT22;2467;48.142;11.616;2022-10-16T02:10:13;15.10;99.90
4904;DHT22;2467;48.142;11.616;2022-10-16T02:10:45;15.00;99.90
4904;DHT22;2467;48.142;11.616;2022-10-16T02:11:17;15.10;99.90
4904;DHT22;2467;48.142;11.616;2022-10-16T02:11:53;15.10;99.90
4904;DHT22;2467;48.142;11.616;2022-10-16T02:12:28;15.10;99.90
4904;DHT22;2467;48.142;11.616;2022-10-16T02:13:06;15.10;99.90
4904;DHT22;2467;48.142;11.616;2022-10-16T02:13:42;15.00;99.90
4904;DHT22;2467;48.142;11.616;2022-10-16T02:14:16;15.00;99.90
4904;DHT22;2467;48.142;11.616;2022-10-16T02:14:49;15.00;99.90
4904;DHT22;2467;48.142;11.616;2022-10-16T02:15:21;15.00;99.90
4904;DHT22;2467;48.142;11.616;2022-10-16T02:15:53;15.00;99.90
4904;DHT22;2467;48.142;11.616;2022-10-16T02:16:32;15.00;99.90
4904;DHT22;2467;48.142;11.616;2022-10-16T02:17:10;15.00;99.90
4904;DHT22;2467;48.142;11.616;2022-10-16T02:17:43;15.00;99.90
4904;DHT22;2467;48.142;11.616;2022-10-16T02:18:15;15.00;99.90
4904;DHT22;2467;48.142;11.616;2022-10-16T02:18:47;15.10;99.90
4904;DHT22;2467;48.142;11.616;2022-10-16T02:19:20;15.00;99.90
4904;DHT22;2467;48.142;11.616;2022-10-16T02:19:54;15.00;99.90
4904;DHT22;2467;48.142;11.616;2022-10-16T02:20:34;15.00;99.90
4904;DHT22;2467;48.142;11.616;2022-10-16T02:21:13;15.00;99.90
4904;DHT22;2467;48.142;11.616;2022-10-16T02:21:51;15.00;99.90
4904;DHT22;2467;48.142;11.616;2022-10-16T02:22:27;15.00;99.90
4904;DHT22;2467;48.142;11.616;2022-10-16T02:23:01;15.00;99.90
4904;DHT22;2467;48.142;11.616;2022-10-16T02:23:40;15.00;99.90
4904;DHT22;2467;48.142;11.616;2022-10-16T02:24:19;14.90;99.90
4904;DHT22;2467;48.142;11.616;2022-10-16T02:24:58;15.00;99.90
4904;DHT22;2467;48.142;11.616;2022-10-16T02:25:33;15.00;99.90
4904;DHT22;2467;48.142;11.616;2022-10-16T02:26:09;15.00;99.90
4904;DHT22;2467;48.142;11.616;2022-10-16T02:26:49;15.00;99.90
4904;DHT22;2467;48.142;11.616;2022-10-16T02:27:26;15.00;99.90
4904;DHT22;2467;48.142;11.616;2022-10-16T02:28:03;15.00;99.90
4904;DHT22;2467;48.142;11.616;2022-10-16T02:28:40;15.00;99.90
4904;DHT22;2467;48.142;11.616;2022-10-16T02:29:17;14.90;99.90
4904;DHT22;2467;48.142;11.616;2022-10-16T02:29:54;14.90;99.90
4904;DHT22;2467;48.142;11.616;2022-10-16T02:30:34;14.90;99.90
4904;DHT22;2467;48.142;11.616;2022-10-16T02:31:11;14.90;99.90
4904;DHT22;2467;48.142;11.616;2022-10-16T02:31:46;14.90;99.90
4904;DHT22;2467;48.142;11.616;2022-10-16T02:32:21;14.90;99.90
4904;DHT22;2467;48.142;11.616;2022-10-16T02:32:56;14.90;99.90
4904;DHT22;2467;48.142;11.616;2022-10-16T02:33:31;15.00;99.90
4904;DHT22;2467;48.142;11.616;2022-10-16T02:34:04;15.00;99.90
4904;DHT22;2467;48.142;11.616;2022-10-16T02:34:39;15.00;99.90
4904;DHT22;2467;48.142;11.616;2022-10-16T02:35:12;14.90;99.90
4904;DHT22;2467;48.142;11.616;2022-10-16T02:35:46;14.90;99.90
4904;DHT22;2467;48.142;11.616;2022-10-16T02:36:20;14.90;99.90
4904;DHT22;2467;48.142;11.616;2022-10-16T02:36:53;14.80;99.90
4904;DHT22;2467;48.142;11.616;2022-10-16T02:37:27;14.80;99.90
4904;DHT22;2467;48.142;11.616;2022-10-16T02:38:01;14.90;99.90
4904;DHT22;2467;48.142;11.616;2022-10-16T02:38:33;14.80;99.90
4904;DHT22;2467;48.142;11.616;2022-10-16T02:39:06;14.80;99.90
4904;DHT22;2467;48.142;11.616;2022-10-16T02:39:40;14.80;99.90
4904;DHT22;2467;48.142;11.616;2022-10-16T02:40:13;14.80;99.90
4904;DHT22;2467;48.142;11.616;2022-10-16T02:40:45;14.80;99.90
4904;DHT22;2467;48.142;11.616;2022-10-16T02:41:20;14.80;99.90
4904;DHT22;2467;48.142;11.616;2022-10-16T02:41:52;14.90;99.90
4904;DHT22;2467;48.142;11.616;2022-10-16T02:42:28;14.90;99.90
4904;DHT22;2467;48.142;11.616;2022-10-16T02:43:04;14.90;99.90
4904;DHT22;2467;48.142;11.616;2022-10-16T02:43:37;14.90;99.90
4904;DHT22;2467;48.142;11.616;2022-10-16T02:44:09;14.90;99.90
4904;DHT22;2467;48.142;11.616;2022-10-16T02:44:41;14.90;99.90
4904;DHT22;2467;48.142;11.616;2022-10-16T02:45:13;14.90;99.90
4904;DHT22;2467;48.142;11.616;2022-10-16T02:45:45;14.90;99.90
4904;DHT22;2467;48.142;11.616;2022-10-16T02:46:18;14.90;99.90
4904;DHT22;2467;48.142;11.616;2022-10-16T02:46:50;14.90;99.90
4904;DHT22;2467;48.142;11.616;2022-10-16T02:47:22;15.00;99.90
4904;DHT22;2467;48.142;11.616;2022-10-16T02:47:55;15.00;99.90
4904;DHT22;2467;48.142;11.616;2022-10-16T02:48:26;15.00;99.90
4904;DHT22;2467;48.142;11.616;2022-10-16T02:48:58;15.00;99.90
4904;DHT22;2467;48.142;11.616;2022-10-16T02:49:31;15.00;99.90
4904;DHT22;2467;48.142;11.616;2022-10-16T02:50:04;15.00;99.90
4904;DHT22;2467;48.142;11.616;2022-10-16T02:50:36;14.90;99.90
4904;DHT22;2467;48.142;11.616;2022-10-16T02:51:08;15.00;99.90
4904;DHT22;2467;48.142;11.616;2022-10-16T02:51:40;15.00;99.90
4904;DHT22;2467;48.142;11.616;2022-10-16T02:52:12;15.00;99.90
4904;DHT22;2467;48.142;11.616;2022-10-16T02:52:45;15.00;99.90
4904;DHT22;2467;48.142;11.616;2022-10-16T02:53:17;14.90;99.90
4904;DHT22;2467;48.142;11.616;2022-10-16T02:53:49;14.90;99.90
4904;DHT22;2467;48.142;11.616;2022-10-16T02:54:21;14.90;99.90
4904;DHT22;2467;48.142;11.616;2022-10-16T02:54:53;14.90;99.90
4904;DHT22;2467;48.142;11.616;2022-10-16T02:55:25;14.90;99.90
4904;DHT22;2467;48.142;11.616;2022-10-16T02:55:59;14.90;99.90
4904;DHT22;2467;48.142;11.616;2022-10-16T02:56:31;14.90;99.90
4904;DHT22;2467;48.142;11.616;2022-10-16T02:57:03;14.90;99.90
4904;DHT22;2467;48.142;11.616;2022-10-16T02:57:35;14.80;99.90
4904;DHT22;2467;48.142;11.616;2022-10-16T02:58:09;14.80;99.90
4904;DHT22;2467;48.142;11.616;2022-10-16T02:58:41;14.80;99.90
4904;DHT22;2467;48.142;11.616;2022-10-16T02:59:14;14.80;99.90
4904;DHT22;2467;48.142;11.616;2022-10-16T02:59:46;15.00;99.90
4904;DHT22;2467;48.142;11.616;2022-10-16T03:00:18;14.80;99.90
4904;DHT22;2467;48.142;11.616;2022-10-16T03:00:51;14.80;99.90
4904;DHT22;2467;48.142;11.616;2022-10-16T03:01:23;14.80;99.90
4904;DHT22;2467;48.142;11.616;2022-10-16T03:01:55;14.80;99.90
4904;DHT22;2467;48.142;11.616;2022-10-16T03:02:28;14.80;99.90
4904;DHT22;2467;48.142;11.616;2022-10-16T03:03:00;14.80;99.90
4904;DHT22;2467;48.142;11.616;2022-10-16T03:03:32;14.80;99.90
4904;DHT22;2467;48.142;11.616;2022-10-16T03:04:05;14.90;99.90
4904;DHT22;2467;48.142;11.616;2022-10-16T03:04:37;14.90;99.90
4904;DHT22;2467;48.142;11.616;2022-10-16T03:05:10;14.90;99.90
4904;DHT22;2467;48.142;11.616;2022-10-16T03:05:43;14.90;99.90
4904;DHT22;2467;48.142;11.616;2022-10-16T03:06:17;14.90;99.90
4904;DHT22;2467;48.142;11.616;2022-10-16T03:06:49;14.90;99.90
4904;DHT22;2467;48.142;11.616;2022-10-16T03:07:22;14.80;99.90
4904;DHT22;2467;48.142;11.616;2022-10-16T03:07:54;14.80;99.90
4904;DHT22;2467;48.142;11.616;2022-10-16T03:08:27;14.80;99.90
4904;DHT22;2467;48.142;11.616;2022-10-16T03:08:58;14.80;99.90
4904;DHT22;2467;48.142;11.616;2022-10-16T03:09:30;14.80;99.90
4904;DHT22;2467;48.142;11.616;2022-10-16T03:10:04;14.80;99.90
4904;DHT22;2467;48.142;11.616;2022-10-16T03:10:36;14.90;99.90
4904;DHT22;2467;48.142;11.616;2022-10-16T03:11:08;14.90;99.90
4904;DHT22;2467;48.142;11.616;2022-10-16T03:11:41;14.90;99.90
4904;DHT22;2467;48.142;11.616;2022-10-16T03:12:12;14.80;99.90
4904;DHT22;2467;48.142;11.616;2022-10-16T03:12:44;14.90;99.90
4904;DHT22;2467;48.142;11.616;2022-10-16T03:13:17;14.90;99.90
4904;DHT22;2467;48.142;11.616;2022-10-16T03:13:51;14.90;99.90
4904;DHT22;2467;48.142;11.616;2022-10-16T03:14:23;14.90;99.90
4904;DHT22;2467;48.142;11.616;2022-10-16T03:14:55;14.90;99.90
4904;DHT22;2467;48.142;11.616;2022-10-16T03:15:28;14.90;99.90
4904;DHT22;2467;48.142;11.616;2022-10-16T03:16:00;14.90;99.90
4904;DHT22;2467;48.142;11.616;2022-10-16T03:16:32;14.90;99.90
4904;DHT22;2467;48.142;11.616;2022-10-16T03:17:05;14.90;99.90
4904;DHT22;2467;48.142;11.616;2022-10-16T03:17:36;14.80;99.90
4904;DHT22;2467;48.142;11.616;2022-10-16T03:18:08;14.80;99.90
4904;DHT22;2467;48.142;11.616;2022-10-16T03:18:41;14.80;99.90
4904;DHT22;2467;48.142;11.616;2022-10-16T03:19:13;14.80;99.90
4904;DHT22;2467;48.142;11.616;2022-10-16T03:19:45;14.80;99.90
4904;DHT22;2467;48.142;11.616;2022-10-16T03:20:18;14.80;99.90
4904;DHT22;2467;48.142;11.616;2022-10-16T03:20:50;14.80;99.90
4904;DHT22;2467;48.142;11.616;2022-10-16T03:21:22;14.80;99.90
4904;DHT22;2467;48.142;11.616;2022-10-16T03:21:55;14.80;99.90
4904;DHT22;2467;48.142;11.616;2022-10-16T03:22:26;14.80;99.90
4904;DHT22;2467;48.142;11.616;2022-10-16T03:22:58;14.80;99.90
4904;DHT22;2467;48.142;11.616;2022-10-16T03:23:31;14.80;99.90
4904;DHT22;2467;48.142;11.616;2022-10-16T03:24:03;14.80;99.90
4904;DHT22;2467;48.142;11.616;2022-10-16T03:24:35;14.80;99.90
4904;DHT22;2467;48.142;11.616;2022-10-16T03:25:08;14.80;99.90
4904;DHT22;2467;48.142;11.616;2022-10-16T03:25:40;14.80;99.90
4904;DHT22;2467;48.142;11.616;2022-10-16T03:26:12;14.80;99.90
4904;DHT22;2467;48.142;11.616;2022-10-16T03:26:45;14.80;99.90
4904;DHT22;2467;48.142;11.616;2022-10-16T03:27:17;14.80;99.90
4904;DHT22;2467;48.142;11.616;2022-10-16T03:27:48;14.80;99.90
4904;DHT22;2467;48.142;11.616;2022-10-16T03:28:23;14.70;99.90
4904;DHT22;2467;48.142;11.616;2022-10-16T03:28:54;14.70;99.90
4904;DHT22;2467;48.142;11.616;2022-10-16T03:29:27;14.70;99.90
4904;DHT22;2467;48.142;11.616;2022-10-16T03:30:01;14.70;99.90
4904;DHT22;2467;48.142;11.616;2022-10-16T03:30:32;14.70;99.90
4904;DHT22;2467;48.142;11.616;2022-10-16T03:31:04;14.70;99.90
4904;DHT22;2467;48.142;11.616;2022-10-16T03:31:37;14.70;99.90
4904;DHT22;2467;48.142;11.616;2022-10-16T03:32:09;14.70;99.90
4904;DHT22;2467;48.142;11.616;2022-10-16T03:32:41;14.70;99.90
4904;DHT22;2467;48.142;11.616;2022-10-16T03:33:14;14.70;99.90
4904;DHT22;2467;48.142;11.616;2022-10-16T03:33:46;14.70;99.90
4904;DHT22;2467;48.142;11.616;2022-10-16T03:34:17;14.70;99.90
4904;DHT22;2467;48.142;11.616;2022-10-16T03:34:49;14.70;99.90
4904;DHT22;2467;48.142;11.616;2022-10-16T03:35:23;14.70;99.90
4904;DHT22;2467;48.142;11.616;2022-10-16T03:35:55;14.70;99.90
4904;DHT22;2467;48.142;11.616;2022-10-16T03:36:26;14.70;99.90
4904;DHT22;2467;48.142;11.616;2022-10-16T03:36:59;14.70;99.90
4904;DHT22;2467;48.142;11.616;2022-10-16T03:37:31;14.70;99.90
4904;DHT22;2467;48.142;11.616;2022-10-16T03:38:03;14.70;99.90
4904;DHT22;2467;48.142;11.616;2022-10-16T03:38:36;14.70;99.90
4904;DHT22;2467;48.142;11.616;2022-10-16T03:39:07;14.70;99.90
4904;DHT22;2467;48.142;11.616;2022-10-16T03:39:39;14.70;99.90
4904;DHT22;2467;48.142;11.616;2022-10-16T03:40:12;14.70;99.90
4904;DHT22;2467;48.142;11.616;2022-10-16T03:40:44;14.70;99.90
4904;DHT22;2467;48.142;11.616;2022-10-16T03:41:16;14.70;99.90